Time;durP1;ratioP1;P1;durP2;ratioP2;P2;SDS_P1;SDS_P2;PMS_P1;PMS_P2;Temp;Humidity;BMP_temperature;BMP_pressure;BME280_temperature;BME280_humidity;BME280_pressure;Samples;Min_cycle;Max_cycle;Signal;HPM_P1;HPM_P2
2023/02/01 00:02:05;;;;;;;15.77;2.80;;;;;;;4.74;100.00;101157.69;5025412;28;20229;-71
2023/02/01 00:04:31;;;;;;;17.07;2.80;;;;;;;4.73;100.00;101144.94;5033460;28;20667;-71
2023/02/01 00:06:56;;;;;;;20.83;3.03;;;;;;;4.76;100.00;101145.09;5034484;28;20682;-71
2023/02/01 00:09:21;;;;;;;19.43;4.03;;;;;;;4.75;100.00;101151.81;5028022;28;20230;-71
2023/02/01 00:11:47;;;;;;;24.27;3.93;;;;;;;4.72;100.00;101138.13;5027477;28;20271;-70
2023/02/01 00:14:13;;;;;;;23.63;3.93;;;;;;;4.76;100.00;101137.47;5029520;28;20685;-71
2023/02/01 00:16:39;;;;;;;18.77;4.07;;;;;;;4.81;100.00;101126.75;5023279;28;20194;-71
2023/02/01 00:19:11;;;;;;;16.27;3.73;;;;;;;4.83;100.00;101120.06;5028900;28;20240;-71
2023/02/01 00:21:37;;;;;;;25.97;4.03;;;;;;;4.84;100.00;101129.41;5029401;28;20214;-71
2023/02/01 00:24:04;;;;;;;17.07;4.20;;;;;;;4.88;100.00;101125.38;5010386;28;20189;-70
2023/02/01 00:26:36;;;;;;;26.73;4.37;;;;;;;4.88;100.00;101123.69;5029647;28;20210;-71
2023/02/01 00:29:05;;;;;;;24.10;3.20;;;;;;;4.87;100.00;101121.97;5030010;28;20178;-72
2023/02/01 00:31:31;;;;;;;28.70;4.50;;;;;;;4.90;100.00;101116.16;5025641;28;20218;-71
2023/02/01 00:33:56;;;;;;;23.20;4.20;;;;;;;4.90;100.00;101118.69;5028632;28;20194;-72
2023/02/01 00:36:22;;;;;;;22.10;4.50;;;;;;;4.99;100.00;101120.00;5025569;28;20222;-72
2023/02/01 00:38:47;;;;;;;23.37;4.90;;;;;;;5.06;100.00;101116.06;5026302;28;20246;-70
2023/02/01 00:41:14;;;;;;;25.47;4.47;;;;;;;5.12;100.00;101118.88;5023988;28;20769;-71
2023/02/01 00:43:41;;;;;;;19.97;4.10;;;;;;;5.14;100.00;101104.56;5024808;28;20237;-71
2023/02/01 00:46:07;;;;;;;25.80;5.00;;;;;;;5.18;100.00;101121.69;5026326;28;20194;-71
2023/02/01 00:48:33;;;;;;;32.57;4.80;;;;;;;5.19;100.00;101114.16;5022293;28;20316;-71
2023/02/01 00:51:03;;;;;;;25.67;4.80;;;;;;;5.29;100.00;101123.06;5026909;28;20202;-71
2023/02/01 00:53:30;;;;;;;22.33;4.43;;;;;;;5.30;100.00;101112.09;5023252;28;20206;-72
2023/02/01 00:55:56;;;;;;;22.80;4.90;;;;;;;5.31;100.00;101116.34;5027270;28;20187;-72
2023/02/01 00:58:25;;;;;;;35.57;5.27;;;;;;;5.32;100.00;101108.81;5026093;28;20201;-72
2023/02/01 01:01:12;;;;;;;40.57;6.00;;;;;;;5.32;100.00;101118.97;5021007;28;20199;-70
2023/02/01 01:03:41;;;;;;;28.20;4.77;;;;;;;5.39;100.00;101115.03;5031309;28;20236;-72
2023/02/01 01:06:12;;;;;;;36.10;5.00;;;;;;;5.39;100.00;101112.50;5030438;28;20729;-70
2023/02/01 01:08:39;;;;;;;26.17;5.37;;;;;;;5.42;100.00;101113.50;5030555;28;20298;-71
2023/02/01 01:11:14;;;;;;;30.80;5.23;;;;;;;5.45;100.00;101100.94;5031259;28;20558;-71
2023/02/01 01:13:40;;;;;;;30.43;5.63;;;;;;;5.47;100.00;101103.53;5030409;28;20193;-69
2023/02/01 01:16:08;;;;;;;26.93;4.77;;;;;;;5.52;100.00;101102.09;5034450;28;20194;-71
2023/02/01 01:18:34;;;;;;;25.63;5.30;;;;;;;5.51;100.00;101097.78;5032601;28;20205;-68
2023/02/01 01:21:00;;;;;;;32.00;5.73;;;;;;;5.48;100.00;101098.50;5034397;28;20194;-71
2023/02/01 01:23:26;;;;;;;26.60;4.60;;;;;;;5.52;100.00;101099.53;5028638;28;20194;-70
2023/02/01 01:25:52;;;;;;;24.13;4.70;;;;;;;5.54;100.00;101106.41;5028167;28;20203;-69
2023/02/01 01:28:18;;;;;;;28.27;5.80;;;;;;;5.59;100.00;101098.97;5030317;28;20281;-72
2023/02/01 01:30:44;;;;;;;30.40;5.07;;;;;;;5.62;100.00;101094.06;5030420;28;20269;-70
2023/02/01 01:33:09;;;;;;;28.13;5.10;;;;;;;5.65;100.00;101096.69;5029525;28;20276;-72
2023/02/01 01:35:35;;;;;;;31.07;6.17;;;;;;;5.64;100.00;101092.44;5027390;28;20565;-71
2023/02/01 01:38:00;;;;;;;27.40;4.90;;;;;;;5.64;100.00;101085.69;5029848;28;20237;-70
2023/02/01 01:40:27;;;;;;;22.70;4.20;;;;;;;5.65;100.00;101081.47;5029085;28;20222;-70
2023/02/01 01:42:54;;;;;;;26.63;5.37;;;;;;;5.66;100.00;101076.44;5028398;28;20221;-71
2023/02/01 01:45:22;;;;;;;26.17;5.83;;;;;;;5.67;100.00;101078.19;5034146;28;20212;-72
2023/02/01 01:47:53;;;;;;;26.97;5.20;;;;;;;5.68;100.00;101076.53;5039734;28;20204;-72
2023/02/01 01:50:27;;;;;;;23.40;4.80;;;;;;;5.68;100.00;101073.97;5034482;28;20194;-71
2023/02/01 01:52:57;;;;;;;24.87;5.10;;;;;;;5.71;100.00;101063.97;5034539;28;20209;-69
2023/02/01 01:55:25;;;;;;;27.07;5.47;;;;;;;5.70;100.00;101052.03;5029643;28;20200;-72
2023/02/01 01:57:59;;;;;;;28.73;5.57;;;;;;;5.69;100.00;101056.28;5023619;28;20925;-73
2023/02/01 02:00:25;;;;;;;28.60;5.10;;;;;;;5.68;100.00;101046.91;5037054;28;20214;-71
2023/02/01 02:03:00;;;;;;;36.67;4.53;;;;;;;5.69;100.00;101047.78;5033574;28;20202;-73
2023/02/01 02:05:26;;;;;;;34.53;5.93;;;;;;;5.70;100.00;101050.38;5027324;28;21035;-72
2023/02/01 02:07:56;;;;;;;33.60;5.83;;;;;;;5.70;100.00;101031.72;5048665;28;20209;-73
2023/02/01 02:10:59;;;;;;;30.50;5.30;;;;;;;5.69;100.00;101035.94;5023469;28;20394;-72
2023/02/01 02:13:07;;;;;;;33.80;5.23;;;;;;;5.66;100.00;101038.34;5030417;28;20226;-73
2023/02/01 02:15:36;;;;;;;32.20;5.83;;;;;;;5.66;100.00;101029.88;5029793;28;20199;-73
2023/02/01 02:18:12;;;;;;;24.63;4.90;;;;;;;5.66;100.00;101033.28;5026168;28;20272;-71
2023/02/01 02:20:59;;;;;;;38.17;5.40;;;;;;;5.66;100.00;101028.19;5028681;28;20205;-72
2023/02/01 02:23:38;;;;;;;34.70;5.33;;;;;;;5.65;100.00;101025.59;5025349;28;20201;-72
2023/02/01 02:26:30;;;;;;;27.63;5.33;;;;;;;5.66;100.00;101014.66;5029323;28;20185;-73
2023/02/01 02:29:07;;;;;;;27.57;5.73;;;;;;;5.66;100.00;101018.03;5025611;28;20195;-73
2023/02/01 02:31:53;;;;;;;37.37;5.93;;;;;;;5.66;100.00;101014.66;5025652;28;20707;-73
2023/02/01 02:34:30;;;;;;;27.20;5.47;;;;;;;5.65;100.00;101015.41;5022763;28;20225;-72
2023/02/01 02:37:08;;;;;;;34.57;6.13;;;;;;;5.64;100.00;101014.56;5034329;28;20198;-72
2023/02/01 02:40:08;;;;;;;37.57;5.93;;;;;;;5.62;100.00;101008.53;5034801;28;20226;-72
2023/02/01 02:48:38;;;;;;;35.07;6.27;;;;;;;5.60;100.00;100994.94;5032560;28;20576;-72
2023/02/01 03:05:11;;;;;;;33.43;5.97;;;;;;;5.68;100.00;100988.50;5030568;28;20204;-72
2023/02/01 03:07:56;;;;;;;34.00;6.43;;;;;;;5.65;100.00;100990.91;5030332;28;20190;-71
2023/02/01 03:10:24;;;;;;;23.27;5.20;;;;;;;5.58;100.00;100963.50;5026680;28;20572;-71
2023/02/01 03:12:56;;;;;;;20.80;4.60;;;;;;;5.58;100.00;100975.34;5035365;28;20268;-72
2023/02/01 03:15:45;;;;;;;30.40;5.47;;;;;;;5.53;100.00;100977.69;5026662;28;20194;-72
2023/02/01 03:18:16;;;;;;;24.63;4.73;;;;;;;5.49;100.00;100970.78;5022592;28;20217;-72
2023/02/01 03:20:46;;;;;;;25.33;4.53;;;;;;;5.47;100.00;100972.38;5028684;28;20221;-71
2023/02/01 03:23:15;;;;;;;25.47;4.57;;;;;;;5.48;100.00;100953.78;5021763;28;20203;-70
2023/02/01 03:25:42;;;;;;;24.37;5.00;;;;;;;5.49;100.00;100963.16;5025946;28;20198;-72
2023/02/01 03:28:09;;;;;;;24.67;4.93;;;;;;;5.52;100.00;100964.97;5035436;28;20229;-72
2023/02/01 03:30:41;;;;;;;25.90;5.40;;;;;;;5.51;100.00;100969.16;5035675;28;20217;-72
2023/02/01 03:33:21;;;;;;;26.93;4.23;;;;;;;5.49;100.00;100968.25;5035235;28;20627;-72
2023/02/01 03:36:09;;;;;;;30.70;7.27;;;;;;;5.42;100.00;100968.78;5035617;28;20563;-72
2023/02/01 03:38:44;;;;;;;25.93;4.80;;;;;;;5.41;100.00;100973.78;5031333;28;20648;-72
2023/02/01 03:41:43;;;;;;;27.50;4.83;;;;;;;5.32;100.00;100979.34;5031540;28;20225;-71
2023/02/01 03:44:08;;;;;;;23.60;4.77;;;;;;;5.28;100.00;100979.16;5009294;28;20217;-70
2023/02/01 03:46:40;;;;;;;23.07;3.87;;;;;;;5.24;100.00;100970.53;5032587;28;20232;-72
2023/02/01 03:49:10;;;;;;;23.30;4.73;;;;;;;5.20;100.00;100966.13;5033051;28;20192;-72
2023/02/01 03:51:40;;;;;;;19.63;3.43;;;;;;;5.22;100.00;100968.75;5029122;28;20215;-70
2023/02/01 03:54:11;;;;;;;21.83;4.17;;;;;;;5.21;100.00;100961.94;5025890;28;20204;-72
2023/02/01 03:56:39;;;;;;;23.87;4.70;;;;;;;5.19;100.00;100954.25;5031050;28;20267;-72
2023/02/01 03:59:05;;;;;;;21.77;4.87;;;;;;;5.19;100.00;100963.53;5029116;28;20313;-71
2023/02/01 04:01:33;;;;;;;15.93;3.57;;;;;;;5.15;100.00;100969.31;5026883;28;20228;-72
2023/02/01 04:04:00;;;;;;;9.83;2.10;;;;;;;4.91;100.00;100964.03;5008577;28;20228;-72
2023/02/01 04:06:26;;;;;;;7.23;1.70;;;;;;;4.82;100.00;100942.47;5027415;28;20190;-71
2023/02/01 04:08:53;;;;;;;9.87;1.90;;;;;;;4.88;100.00;100947.81;5028692;28;20205;-72
2023/02/01 04:11:18;;;;;;;9.73;2.40;;;;;;;4.84;100.00;100930.72;5027222;28;20291;-71
2023/02/01 04:13:44;;;;;;;13.17;3.00;;;;;;;4.85;100.00;100935.88;5026729;28;20289;-70
2023/02/01 04:16:09;;;;;;;15.40;3.17;;;;;;;4.85;100.00;100927.38;5025679;28;20737;-70
2023/02/01 04:18:35;;;;;;;24.93;3.97;;;;;;;4.86;100.00;100924.91;5024991;28;20186;-72
2023/02/01 04:21:01;;;;;;;14.23;2.97;;;;;;;4.88;100.00;100925.84;5039052;28;20550;-71
2023/02/01 04:23:28;;;;;;;11.83;2.87;;;;;;;4.87;100.00;100931.72;5036306;28;20200;-71
2023/02/01 04:25:54;;;;;;;13.23;2.93;;;;;;;4.87;100.00;100918.16;5037389;28;20194;-73
2023/02/01 04:28:20;;;;;;;15.23;3.13;;;;;;;4.87;100.00;100916.50;5034658;28;20208;-71
2023/02/01 04:30:46;;;;;;;15.00;2.83;;;;;;;4.86;100.00;100924.03;5034934;28;20186;-72
2023/02/01 04:33:13;;;;;;;16.10;2.80;;;;;;;4.83;100.00;100918.84;5036131;28;20219;-72
2023/02/01 04:35:39;;;;;;;15.20;2.67;;;;;;;4.82;100.00;100917.97;5030292;28;20203;-72
2023/02/01 04:38:05;;;;;;;15.17;2.50;;;;;;;4.85;100.00;100910.50;5035317;28;20193;-72
2023/02/01 04:40:30;;;;;;;9.23;2.57;;;;;;;4.84;100.00;100916.34;5036486;28;20613;-71
2023/02/01 04:42:56;;;;;;;11.17;2.20;;;;;;;4.83;100.00;100909.56;5038419;28;20268;-72
2023/02/01 04:45:21;;;;;;;16.33;2.30;;;;;;;4.83;100.00;100899.41;5034988;28;20557;-72
2023/02/01 04:47:48;;;;;;;12.30;2.70;;;;;;;4.85;100.00;100891.88;5034205;28;20198;-71
2023/02/01 04:50:14;;;;;;;17.87;2.20;;;;;;;4.87;100.00;100901.28;5035130;28;20212;-71
2023/02/01 04:52:40;;;;;;;11.83;2.40;;;;;;;4.85;100.00;100889.34;5033105;28;20711;-71
2023/02/01 04:55:05;;;;;;;12.60;2.50;;;;;;;4.87;100.00;100892.78;5031908;28;20196;-72
2023/02/01 04:57:31;;;;;;;13.17;2.13;;;;;;;4.86;100.00;100897.00;5029332;28;20585;-72
2023/02/01 04:59:56;;;;;;;11.43;2.10;;;;;;;4.84;100.00;100897.75;5032574;28;20215;-73
2023/02/01 05:02:22;;;;;;;13.93;3.00;;;;;;;4.84;100.00;100890.16;5029231;28;20305;-72
2023/02/01 05:04:47;;;;;;;9.07;2.17;;;;;;;4.84;100.00;100885.06;5031000;28;20566;-72
2023/02/01 05:07:13;;;;;;;8.23;1.90;;;;;;;4.81;100.00;100883.28;5028340;28;20225;-72
2023/02/01 05:09:38;;;;;;;10.00;2.53;;;;;;;4.82;100.00;100896.81;5030449;28;20264;-73
2023/02/01 05:14:48;;;;;;;9.07;2.13;;;;;;;4.77;100.00;100898.28;5038115;28;20241;-72
2023/02/01 05:17:14;;;;;;;10.43;2.13;;;;;;;4.72;100.00;100900.63;5030094;28;20675;-72
2023/02/01 05:19:39;;;;;;;5.80;1.70;;;;;;;4.67;100.00;100902.09;5032541;28;20669;-69
2023/02/01 05:22:05;;;;;;;4.37;1.20;;;;;;;4.64;100.00;100901.97;5040828;28;20210;-74
2023/02/01 05:24:30;;;;;;;7.27;1.30;;;;;;;4.43;100.00;100892.56;5036217;28;20725;-72
2023/02/01 05:26:56;;;;;;;3.07;1.20;;;;;;;4.33;100.00;100914.06;5039520;28;20206;-70
2023/02/01 05:29:21;;;;;;;5.53;1.00;;;;;;;4.13;100.00;100919.03;5033815;28;20242;-72
2023/02/01 05:31:47;;;;;;;2.27;0.83;;;;;;;4.02;100.00;100930.34;5036462;28;20651;-73
2023/02/01 05:34:14;;;;;;;3.93;0.80;;;;;;;3.91;100.00;100922.25;5015156;28;20193;-72
2023/02/01 05:36:40;;;;;;;5.33;0.87;;;;;;;3.72;100.00;100926.41;5030089;28;20233;-69
2023/02/01 05:39:05;;;;;;;3.87;0.77;;;;;;;3.57;100.00;100910.47;5035145;28;20304;-72
2023/02/01 05:41:30;;;;;;;3.20;0.60;;;;;;;3.49;100.00;100902.50;5031723;28;20249;-72
2023/02/01 05:43:56;;;;;;;2.13;0.60;;;;;;;3.45;100.00;100892.19;5031779;28;20225;-72
2023/02/01 05:46:21;;;;;;;0.97;0.40;;;;;;;3.38;100.00;100883.41;5030780;28;20193;-72
2023/02/01 05:48:47;;;;;;;0.57;0.30;;;;;;;3.32;100.00;100875.50;5029775;28;20202;-72
2023/02/01 05:51:12;;;;;;;1.40;0.30;;;;;;;3.25;100.00;100877.69;5029725;28;20218;-72
2023/02/01 05:53:38;;;;;;;1.23;0.50;;;;;;;3.27;100.00;100878.63;5027949;28;20194;-72
2023/02/01 05:56:03;;;;;;;0.60;0.40;;;;;;;3.25;100.00;100896.25;5028165;28;20198;-71
2023/02/01 05:58:30;;;;;;;2.23;0.60;;;;;;;3.25;100.00;100902.97;5022398;28;20198;-71
2023/02/01 06:00:55;;;;;;;3.73;0.80;;;;;;;3.16;100.00;100913.53;5027943;28;20571;-70
2023/02/01 06:03:21;;;;;;;2.20;0.70;;;;;;;3.10;100.00;100913.22;5039257;28;20200;-72
2023/02/01 06:05:47;;;;;;;3.40;0.50;;;;;;;3.07;100.00;100930.75;5038784;28;20205;-72
2023/02/01 06:08:13;;;;;;;1.43;0.60;;;;;;;3.05;100.00;100924.78;5038994;28;20206;-72
2023/02/01 06:10:39;;;;;;;2.10;0.53;;;;;;;3.08;100.00;100929.97;5036144;28;20217;-72
2023/02/01 06:13:04;;;;;;;1.67;0.60;;;;;;;3.07;100.00;100925.72;5034877;28;20209;-72
2023/02/01 06:15:31;;;;;;;1.77;0.40;;;;;;;3.09;100.00;100919.06;5033241;28;20236;-70
2023/02/01 06:17:56;;;;;;;3.03;0.50;;;;;;;3.11;100.00;100916.59;5028778;28;20215;-72
2023/02/01 06:20:22;;;;;;;3.50;0.90;;;;;;;3.12;100.00;100911.63;5032942;28;20765;-70
2023/02/01 06:22:47;;;;;;;1.93;0.40;;;;;;;3.15;100.00;100909.25;5029734;28;20218;-72
2023/02/01 06:25:13;;;;;;;1.80;0.47;;;;;;;3.15;100.00;100909.25;5031894;28;20195;-73
2023/02/01 06:27:38;;;;;;;0.73;0.40;;;;;;;3.17;100.00;100902.59;5026868;28;20198;-70
2023/02/01 06:30:05;;;;;;;1.43;0.40;;;;;;;3.21;100.00;100906.16;5026726;28;20202;-72
2023/02/01 06:32:31;;;;;;;0.63;0.40;;;;;;;3.21;100.00;100909.56;5023566;28;20238;-70
2023/02/01 06:34:56;;;;;;;1.10;0.50;;;;;;;3.22;100.00;100906.22;5024225;28;20186;-71
2023/02/01 06:37:24;;;;;;;2.57;0.90;;;;;;;3.23;100.00;100902.03;5023998;28;20214;-70
2023/02/01 06:39:50;;;;;;;1.43;0.60;;;;;;;3.27;100.00;100896.34;5026893;28;20241;-73
2023/02/01 06:42:15;;;;;;;3.33;0.80;;;;;;;3.33;100.00;100901.69;5022333;28;20714;-72
2023/02/01 06:44:41;;;;;;;3.93;1.00;;;;;;;3.32;100.00;100887.31;5025121;28;20220;-71
2023/02/01 06:47:06;;;;;;;3.43;1.00;;;;;;;3.36;100.00;100896.78;5025553;28;20248;-72
2023/02/01 06:49:32;;;;;;;5.43;1.40;;;;;;;3.38;100.00;100901.13;5025382;28;20265;-72
2023/02/01 06:51:59;;;;;;;4.57;1.20;;;;;;;3.45;100.00;100897.25;5027626;28;20222;-72
2023/02/01 06:54:26;;;;;;;4.47;1.07;;;;;;;3.47;100.00;100909.16;5028314;28;20201;-70
2023/02/01 06:56:51;;;;;;;3.90;1.03;;;;;;;3.53;100.00;100921.22;5022512;28;20194;-72
2023/02/01 06:59:17;;;;;;;6.60;1.30;;;;;;;3.57;100.00;100902.88;5018302;28;20219;-72
2023/02/01 07:01:42;;;;;;;11.43;2.07;;;;;;;3.63;100.00;100908.25;5028488;28;20219;-72
2023/02/01 07:04:10;;;;;;;11.63;1.80;;;;;;;3.68;100.00;100896.66;5030457;28;20726;-72
2023/02/01 07:06:36;;;;;;;8.07;1.83;;;;;;;3.77;100.00;100881.91;5029610;28;20648;-72
2023/02/01 07:09:02;;;;;;;14.47;2.17;;;;;;;3.79;100.00;100887.91;5040747;28;20190;-71
2023/02/01 07:11:28;;;;;;;12.03;2.43;;;;;;;3.85;100.00;100885.63;5020676;28;20594;-72
2023/02/01 07:13:54;;;;;;;14.23;2.33;;;;;;;3.94;100.00;100891.13;5022794;28;20282;-72
2023/02/01 07:16:20;;;;;;;16.40;3.00;;;;;;;3.98;100.00;100898.97;5017644;28;20192;-70
2023/02/01 07:18:46;;;;;;;17.93;2.57;;;;;;;4.04;100.00;100893.28;5021170;28;20225;-72
2023/02/01 07:21:12;;;;;;;12.30;2.43;;;;;;;4.07;100.00;100896.84;5025954;28;20217;-71
2023/02/01 07:23:38;;;;;;;12.53;2.80;;;;;;;4.06;100.00;100889.19;5025870;28;20872;-71
2023/02/01 07:26:06;;;;;;;16.20;2.53;;;;;;;4.12;100.00;100894.50;5022836;28;20194;-71
2023/02/01 07:28:34;;;;;;;12.30;2.80;;;;;;;4.15;100.00;100887.06;5024662;28;20217;-72
2023/02/01 07:31:18;;;;;;;15.93;2.57;;;;;;;4.14;100.00;100883.66;5023937;28;20194;-72
2023/02/01 07:33:44;;;;;;;12.70;2.10;;;;;;;4.18;100.00;100889.75;5024435;28;20651;-73
2023/02/01 07:36:15;;;;;;;18.67;2.67;;;;;;;4.23;100.00;100890.81;5020748;28;20260;-72
2023/02/01 07:38:41;;;;;;;15.63;2.93;;;;;;;4.24;100.00;100883.25;5020832;28;20233;-72
2023/02/01 07:41:08;;;;;;;13.27;2.07;;;;;;;4.24;100.00;100885.78;5022056;28;20229;-70
2023/02/01 07:43:34;;;;;;;13.00;2.53;;;;;;;4.27;100.00;100898.59;5027473;28;20190;-69
2023/02/01 07:46:00;;;;;;;12.00;2.50;;;;;;;4.30;100.00;100895.34;5026239;28;20639;-72
2023/02/01 07:48:26;;;;;;;13.07;2.77;;;;;;;4.37;100.00;100899.91;5025723;28;20660;-73
2023/02/01 07:51:02;;;;;;;18.97;3.13;;;;;;;4.44;100.00;100904.41;5024661;28;20222;-73
2023/02/01 07:53:30;;;;;;;17.27;3.40;;;;;;;4.50;100.00;100908.09;5021522;28;20209;-73
2023/02/01 07:55:56;;;;;;;15.40;2.93;;;;;;;4.51;100.00;100897.16;5019783;28;20269;-73
2023/02/01 07:58:22;;;;;;;16.80;3.20;;;;;;;4.55;100.00;100888.88;5022608;28;20723;-72
2023/02/01 08:03:32;;;;;;;26.83;4.53;;;;;;;4.70;100.00;100881.09;5026081;28;20206;-72
2023/02/01 08:05:57;;;;;;;20.93;3.83;;;;;;;4.78;100.00;100879.75;5020492;28;20202;-73
2023/02/01 08:08:23;;;;;;;24.30;4.43;;;;;;;4.79;100.00;100884.88;5007885;28;20222;-74
2023/02/01 08:10:48;;;;;;;17.50;3.70;;;;;;;4.83;100.00;100883.34;5016734;28;21024;-74
2023/02/01 08:13:14;;;;;;;27.73;4.53;;;;;;;4.92;100.00;100884.59;5031009;28;20292;-74
2023/02/01 08:15:39;;;;;;;21.33;4.23;;;;;;;4.99;100.00;100886.59;5032504;28;20233;-74
2023/02/01 08:18:05;;;;;;;23.50;4.57;;;;;;;5.05;100.00;100888.50;5031480;28;20277;-74
2023/02/01 08:20:31;;;;;;;22.20;4.17;;;;;;;5.12;100.00;100878.69;5030548;28;20693;-72
2023/02/01 08:22:56;;;;;;;23.60;3.53;;;;;;;5.17;100.00;100884.81;5028435;28;20706;-74
2023/02/01 08:25:22;;;;;;;25.47;4.73;;;;;;;5.28;100.00;100883.56;5027364;28;20194;-74
2023/02/01 08:27:49;;;;;;;29.73;4.60;;;;;;;5.38;100.00;100888.22;5025031;28;20223;-74
2023/02/01 08:30:14;;;;;;;23.80;4.07;;;;;;;5.44;100.00;100887.59;5025886;28;20198;-70
2023/02/01 08:32:40;;;;;;;20.60;4.43;;;;;;;5.45;100.00;100890.22;5021192;28;20585;-74
2023/02/01 08:35:06;;;;;;;27.90;4.73;;;;;;;5.55;100.00;100897.38;5029853;28;20245;-73
2023/02/01 08:37:32;;;;;;;27.07;4.97;;;;;;;5.68;100.00;100906.34;5023806;28;20194;-73
2023/02/01 08:39:57;;;;;;;31.87;4.60;;;;;;;5.90;100.00;100906.41;5024969;28;20218;-74
2023/02/01 08:45:08;;;;;;;20.13;4.00;;;;;;;5.87;100.00;100917.34;5028467;28;20288;-74
2023/02/01 08:47:34;;;;;;;20.93;3.60;;;;;;;6.17;100.00;100903.22;5025301;28;20191;-74
2023/02/01 08:50:00;;;;;;;20.33;3.90;;;;;;;6.25;100.00;100903.50;5026342;28;20198;-74
2023/02/01 08:52:26;;;;;;;33.37;5.50;;;;;;;6.44;100.00;100891.53;5043856;28;20241;-74
2023/02/01 08:54:51;;;;;;;21.00;3.73;;;;;;;6.40;100.00;100889.69;5031740;28;20198;-74
2023/02/01 08:57:17;;;;;;;18.30;3.67;;;;;;;6.49;100.00;100884.94;5029394;28;20694;-74
2023/02/01 08:59:44;;;;;;;23.40;4.73;;;;;;;6.59;100.00;100873.44;5022718;28;20576;-74
2023/02/01 09:02:14;;;;;;;28.80;4.90;;;;;;;6.45;100.00;100892.44;5023356;28;20257;-72
2023/02/01 09:04:41;;;;;;;20.57;4.20;;;;;;;6.64;100.00;100871.91;5029237;28;20197;-74
2023/02/01 09:07:07;;;;;;;19.00;3.60;;;;;;;6.76;100.00;100878.28;5033273;28;20201;-74
2023/02/01 09:09:32;;;;;;;28.90;3.90;;;;;;;6.74;100.00;100874.84;5027038;28;20256;-74
2023/02/01 09:11:58;;;;;;;17.73;3.80;;;;;;;6.67;100.00;100865.25;5032440;28;20275;-74
2023/02/01 09:14:23;;;;;;;22.20;4.57;;;;;;;6.68;100.00;100876.31;5026310;28;20194;-73
2023/02/01 09:16:49;;;;;;;22.40;4.47;;;;;;;8.04;100.00;100883.38;5023938;28;20187;-73
2023/02/01 09:19:14;;;;;;;21.10;4.00;;;;;;;7.86;100.00;100880.25;5030468;28;20803;-75
2023/02/01 09:21:40;;;;;;;17.20;4.20;;;;;;;8.59;100.00;100886.72;5027599;28;20218;-73
2023/02/01 09:24:06;;;;;;;19.90;3.63;;;;;;;7.87;100.00;100887.09;5026378;28;20194;-73
2023/02/01 09:26:32;;;;;;;16.03;3.23;;;;;;;7.05;100.00;100874.22;5027163;28;20206;-74
2023/02/01 09:28:58;;;;;;;20.20;4.60;;;;;;;7.15;100.00;100871.16;5036208;28;20203;-75
2023/02/01 09:31:23;;;;;;;17.47;3.83;;;;;;;8.43;100.00;100870.94;5022159;28;20219;-75
2023/02/01 09:33:48;;;;;;;14.57;4.10;;;;;;;9.67;100.00;100881.00;5028489;28;20686;-74
2023/02/01 09:36:14;;;;;;;17.80;4.13;;;;;;;7.75;100.00;100883.31;5026314;28;20210;-72
2023/02/01 09:38:39;;;;;;;21.90;4.00;;;;;;;7.18;100.00;100889.94;5026639;28;20201;-70
2023/02/01 09:41:40;;;;;;;18.77;3.37;;;;;;;6.66;100.00;100886.41;5025382;28;20300;-74
2023/02/01 09:44:31;;;;;;;27.37;4.27;;;;;;;6.47;100.00;100876.41;5003324;28;20363;-74
2023/02/01 09:46:59;;;;;;;20.63;3.67;;;;;;;6.52;100.00;100882.53;5027157;28;20190;-73
2023/02/01 09:49:31;;;;;;;21.23;4.43;;;;;;;6.68;100.00;100889.88;5025781;28;20198;-73
2023/02/01 09:51:58;;;;;;;22.07;4.27;;;;;;;6.52;100.00;100912.16;5025189;28;20238;-74
2023/02/01 09:54:42;;;;;;;25.23;4.47;;;;;;;6.50;100.00;100909.56;5028191;28;20203;-74
2023/02/01 09:57:15;;;;;;;20.70;4.20;;;;;;;6.76;100.00;100908.81;5025047;28;20194;-73
2023/02/01 09:59:44;;;;;;;24.57;4.73;;;;;;;7.37;100.00;100899.91;5022873;28;20784;-74
2023/02/01 10:02:18;;;;;;;18.17;3.13;;;;;;;6.78;100.00;100891.91;5012063;28;20301;-73
2023/02/01 10:04:44;;;;;;;23.53;4.10;;;;;;;6.78;100.00;100885.97;5022301;28;20273;-74
2023/02/01 10:07:28;;;;;;;20.73;3.70;;;;;;;7.18;100.00;100892.47;5024875;28;20218;-72
2023/02/01 10:09:56;;;;;;;13.67;3.63;;;;;;;11.31;100.00;100877.56;5022866;28;20204;-75
2023/02/01 10:12:42;;;;;;;15.33;3.30;;;;;;;13.00;100.00;100884.25;5022417;28;20245;-74
2023/02/01 10:15:27;;;;;;;16.27;3.43;;;;;;;10.92;100.00;100898.22;5034422;28;20220;-72
2023/02/01 10:17:58;;;;;;;19.50;3.43;;;;;;;8.63;100.00;100915.75;5030173;28;20218;-72
2023/02/01 10:20:48;;;;;;;17.33;3.70;;;;;;;10.23;100.00;100906.19;5029837;28;20840;-74
2023/02/01 10:24:01;;;;;;;18.27;3.33;;;;;;;9.06;100.00;100905.84;5031094;28;20229;-74
2023/02/01 10:26:33;;;;;;;14.77;3.10;;;;;;;7.72;100.00;100906.13;4982194;28;20203;-72
2023/02/01 10:29:02;;;;;;;19.20;4.77;;;;;;;7.44;100.00;100895.88;4982331;28;20283;-73
2023/02/01 10:31:34;;;;;;;17.90;3.70;;;;;;;7.88;100.00;100906.66;5008177;28;20309;-74
2023/02/01 10:34:07;;;;;;;14.03;3.60;;;;;;;9.78;100.00;100882.13;5027748;28;22994;-73
2023/02/01 10:36:39;;;;;;;17.27;3.27;;;;;;;8.22;100.00;100911.13;5026772;28;20863;-73
2023/02/01 10:39:07;;;;;;;17.03;3.60;;;;;;;7.67;100.00;100910.22;5027117;28;20237;-73
2023/02/01 10:41:35;;;;;;;24.63;4.33;;;;;;;7.41;100.00;100900.91;5027258;28;20683;-72
2023/02/01 10:44:06;;;;;;;19.43;3.27;;;;;;;7.09;100.00;100904.03;5026298;28;20206;-72
2023/02/01 10:46:33;;;;;;;15.40;3.37;;;;;;;6.97;100.00;100879.03;5025215;28;20837;-73
2023/02/01 10:49:03;;;;;;;16.17;3.90;;;;;;;6.89;100.00;100888.09;5025501;28;20242;-74
2023/02/01 10:51:45;;;;;;;22.07;4.70;;;;;;;6.86;100.00;100884.56;5028284;28;20215;-73
2023/02/01 10:54:17;;;;;;;16.40;3.87;;;;;;;6.82;100.00;100865.78;5024958;28;20205;-72
2023/02/01 10:56:45;;;;;;;16.60;3.37;;;;;;;6.75;100.00;100856.22;5022065;28;20199;-73
2023/02/01 10:59:17;;;;;;;20.77;3.90;;;;;;;6.79;100.00;100862.25;5027249;28;20237;-74
2023/02/01 11:01:46;;;;;;;22.77;3.40;;;;;;;6.68;100.00;100854.25;5023548;28;20211;-73
2023/02/01 11:04:19;;;;;;;19.80;4.73;;;;;;;6.65;100.00;100831.28;5023031;28;20190;-73
2023/02/01 11:07:07;;;;;;;19.40;4.27;;;;;;;6.80;100.00;100824.16;5029387;28;20328;-70
2023/02/01 11:09:38;;;;;;;18.13;4.30;;;;;;;6.96;100.00;100830.63;5027157;28;20655;-73
2023/02/01 11:12:04;;;;;;;23.77;4.03;;;;;;;6.82;100.00;100825.06;5030517;28;20205;-73
2023/02/01 11:14:40;;;;;;;16.83;4.33;;;;;;;6.73;100.00;100822.19;5029016;28;20190;-73
2023/02/01 11:17:14;;;;;;;17.57;4.60;;;;;;;6.61;100.00;100814.16;5029907;28;20251;-73
2023/02/01 11:19:55;;;;;;;19.53;3.83;;;;;;;6.47;100.00;100817.03;5026531;28;20222;-72
2023/02/01 11:22:21;;;;;;;23.37;4.63;;;;;;;6.38;100.00;100812.50;5026828;28;20226;-73
2023/02/01 11:24:47;;;;;;;19.77;3.63;;;;;;;6.26;100.00;100806.97;5028270;28;20245;-73
2023/02/01 11:27:17;;;;;;;15.30;3.60;;;;;;;6.13;100.00;100802.25;5027928;28;20309;-72
2023/02/01 11:29:46;;;;;;;18.87;4.07;;;;;;;6.19;100.00;100784.72;5028183;28;20252;-72
2023/02/01 11:32:14;;;;;;;24.33;4.00;;;;;;;6.24;100.00;100797.56;5026003;28;20882;-73
2023/02/01 11:34:53;;;;;;;23.80;3.93;;;;;;;6.33;100.00;100790.25;5024828;28;20194;-72
2023/02/01 11:37:33;;;;;;;20.67;3.53;;;;;;;6.39;100.00;100777.75;5024730;28;20194;-73
2023/02/01 11:40:23;;;;;;;23.50;4.07;;;;;;;6.35;100.00;100771.69;5025263;28;20302;-72
2023/02/01 11:42:54;;;;;;;20.53;3.80;;;;;;;6.37;100.00;100772.63;5024408;28;20765;-74
2023/02/01 11:45:26;;;;;;;22.63;4.27;;;;;;;6.39;100.00;100776.09;5027818;28;20194;-73
2023/02/01 11:47:52;;;;;;;19.77;4.07;;;;;;;6.40;100.00;100772.72;5025804;28;20595;-72
2023/02/01 11:50:56;;;;;;;22.27;3.80;;;;;;;6.40;100.00;100782.06;5026907;28;20194;-75
2023/02/01 11:53:37;;;;;;;22.83;3.97;;;;;;;6.34;100.00;100764.00;4999132;28;20236;-73
2023/02/01 11:56:15;;;;;;;14.20;2.20;;;;;;;6.17;100.00;100753.25;5024448;28;20867;-75
2023/02/01 11:59:08;;;;;;;11.87;2.80;;;;;;;6.09;100.00;100761.44;5034261;28;20921;-72